createdAt,value
2023-01-11T00:02:35.000Z,5.39
2023-01-11T00:12:35.000Z,5.5
2023-01-11T00:17:34.000Z,5.16
2023-01-11T00:22:35.000Z,5.12
2023-01-11T00:27:34.000Z,5.41
2023-01-11T00:32:35.000Z,5.79
2023-01-11T00:37:34.000Z,6.17
2023-01-11T00:42:35.000Z,6.07
2023-01-11T00:47:34.000Z,6.07
2023-01-11T00:52:35.000Z,5.83
2023-01-11T00:57:35.000Z,5.84
2023-01-11T01:02:34.000Z,5.86
2023-01-11T01:07:35.000Z,6.45
2023-01-11T01:12:35.000Z,6.92
2023-01-11T01:17:35.000Z,6.83
2023-01-11T01:22:35.000Z,6.63
2023-01-11T01:27:34.000Z,7.2
2023-01-11T01:32:35.000Z,7.08
2023-01-11T01:37:34.000Z,6.73
2023-01-11T01:42:35.000Z,6.93
2023-01-11T01:47:34.000Z,6.5
2023-01-11T01:52:35.000Z,6.81
2023-01-11T01:57:34.000Z,7.03
2023-01-11T02:02:35.000Z,7.03
2023-01-11T02:07:35.000Z,7.05
2023-01-11T02:12:34.000Z,7.19
2023-01-11T02:17:35.000Z,7.58
2023-01-11T02:22:34.000Z,7.44
2023-01-11T02:27:34.000Z,7.41
2023-01-11T02:32:35.000Z,7.36
2023-01-11T02:47:35.000Z,7.3
2023-01-11T02:52:35.000Z,7.25
2023-01-11T02:57:35.000Z,7.19
2023-01-11T03:02:34.000Z,7.28
2023-01-11T03:07:35.000Z,7.48
2023-01-11T03:12:35.000Z,8.02
2023-01-11T03:17:35.000Z,7.4
2023-01-11T03:22:35.000Z,8.08
2023-01-11T03:27:34.000Z,7.73
2023-01-11T03:32:35.000Z,7.69
2023-01-11T03:37:35.000Z,7.91
2023-01-11T03:42:35.000Z,7.85
2023-01-11T03:47:35.000Z,7.52
2023-01-11T03:52:35.000Z,7.54
2023-01-11T03:57:35.000Z,7.54
2023-01-11T04:02:34.000Z,7.69
2023-01-11T04:07:34.000Z,8.07
2023-01-11T04:12:35.000Z,8.05
2023-01-11T04:17:34.000Z,7.98
2023-01-11T04:22:35.000Z,7.97
2023-01-11T04:27:34.000Z,7.78
2023-01-11T04:32:35.000Z,7.42
2023-01-11T04:37:35.000Z,7.83
2023-01-11T04:42:34.000Z,7.56
2023-01-11T04:47:35.000Z,7.29
2023-01-11T04:52:34.000Z,7.53
2023-01-11T04:57:35.000Z,7.39
2023-01-11T05:02:34.000Z,7.51
2023-01-11T05:07:35.000Z,8.2
2023-01-11T05:12:34.000Z,8.2
2023-01-11T05:17:35.000Z,7.69
2023-01-11T05:22:35.000Z,7.9
2023-01-11T05:27:34.000Z,7.46
2023-01-11T05:32:35.000Z,7.09
2023-01-11T05:37:35.000Z,7.23
2023-01-11T05:42:35.000Z,6.58
2023-01-11T05:47:34.000Z,7.57
2023-01-11T05:52:35.000Z,7.08
2023-01-11T05:57:34.000Z,7.35
2023-01-11T06:02:35.000Z,6.45
2023-01-11T06:12:35.000Z,7.25
2023-01-11T06:17:34.000Z,6.47
2023-01-11T06:22:35.000Z,6.26
2023-01-11T06:27:34.000Z,6.09
2023-01-11T06:32:35.000Z,6.8
2023-01-11T06:37:35.000Z,6.56
2023-01-11T06:42:35.000Z,6.06
2023-01-11T06:47:35.000Z,5.96
2023-01-11T06:52:35.000Z,6.58
2023-01-11T06:57:34.000Z,6.58
2023-01-11T07:02:35.000Z,6.29
2023-01-11T07:07:34.000Z,6.04
2023-01-11T07:12:35.000Z,6.22
2023-01-11T07:17:34.000Z,6.14
2023-01-11T07:22:35.000Z,6.1
2023-01-11T07:27:34.000Z,6.07
2023-01-11T07:32:35.000Z,6.47
2023-01-11T07:42:34.000Z,6.41
2023-01-11T07:57:35.000Z,6.04
2023-01-11T08:02:35.000Z,5.75
2023-01-11T08:07:34.000Z,5.96
2023-01-11T08:12:35.000Z,5.69
2023-01-11T08:17:35.000Z,5.73
2023-01-11T08:22:35.000Z,5.64
2023-01-11T08:27:35.000Z,6
2023-01-11T08:32:34.000Z,5.85
2023-01-11T08:37:35.000Z,5.88
2023-01-11T08:42:34.000Z,5.6
2023-01-11T08:47:35.000Z,5.66
2023-01-11T08:52:34.000Z,6.04
2023-01-11T08:57:35.000Z,5.48
2023-01-11T09:02:34.000Z,5.48
2023-01-11T09:07:35.000Z,5.59
2023-01-11T09:12:35.000Z,5.48
2023-01-11T09:17:35.000Z,5.55
2023-01-11T09:22:34.000Z,6.09
2023-01-11T09:27:35.000Z,6.33
2023-01-11T09:32:34.000Z,6.24
2023-01-11T09:37:35.000Z,5.75
2023-01-11T09:42:35.000Z,6.31
2023-01-11T09:47:35.000Z,6.2
2023-01-11T09:52:35.000Z,6.26
2023-01-11T09:57:35.000Z,6.02
2023-01-11T10:02:35.000Z,6.08
2023-01-11T10:07:34.000Z,6.19
2023-01-11T10:14:07.000Z,6.13
2023-01-11T10:27:35.000Z,6.54
2023-01-11T10:32:34.000Z,5.85
2023-01-11T10:37:35.000Z,6.11
2023-01-11T10:42:34.000Z,5.91
2023-01-11T10:47:35.000Z,6.33
2023-01-11T10:52:34.000Z,6.36
2023-01-11T10:57:36.000Z,6.29
2023-01-11T11:02:36.000Z,5.98
2023-01-11T11:07:35.000Z,6.04
2023-01-11T11:12:35.000Z,6.1
2023-01-11T11:17:35.000Z,6.54
2023-01-11T11:22:35.000Z,6.16
2023-01-11T11:27:34.000Z,5.99
2023-01-11T11:32:34.000Z,5.99
2023-01-11T11:37:35.000Z,6.22
2023-01-11T11:47:34.000Z,6.33
2023-01-11T11:52:35.000Z,6.11
2023-01-11T11:57:36.000Z,6.02
2023-01-11T12:02:35.000Z,6.2
2023-01-11T12:12:39.000Z,6.14
2023-01-11T12:17:34.000Z,6.25
2023-01-11T12:22:35.000Z,6.41
2023-01-11T12:27:34.000Z,6.28
2023-01-11T12:32:34.000Z,5.91
2023-01-11T12:37:34.000Z,5.92
2023-01-11T12:42:35.000Z,6.47
2023-01-11T12:47:34.000Z,5.81
2023-01-11T12:57:35.000Z,5.73
2023-01-11T13:02:35.000Z,6.16
2023-01-11T13:07:34.000Z,6
2023-01-11T13:12:35.000Z,5.55
2023-01-11T13:17:34.000Z,5.24
2023-01-11T13:22:34.000Z,4.82
2023-01-11T13:27:35.000Z,5.68
2023-01-11T13:32:34.000Z,5.56
2023-01-11T13:37:34.000Z,4.77
2023-01-11T13:42:35.000Z,6.2
2023-01-11T13:47:34.000Z,5.67
2023-01-11T13:52:35.000Z,5.8
2023-01-11T13:57:34.000Z,4.89
2023-01-11T14:02:34.000Z,4.89
2023-01-11T14:07:35.000Z,5.15
2023-01-11T14:12:35.000Z,5.09
2023-01-11T14:17:34.000Z,4.88
2023-01-11T14:22:35.000Z,5.15
2023-01-11T14:27:36.000Z,5.11
2023-01-11T14:32:36.000Z,4.95
2023-01-11T14:37:36.000Z,4.86
2023-01-11T14:42:44.000Z,5.23
2023-01-11T14:47:35.000Z,5.44
2023-01-11T14:52:50.000Z,5.44
2023-01-11T14:57:36.000Z,5.47
2023-01-11T15:02:36.000Z,5.79
2023-01-11T15:07:35.000Z,5.41
2023-01-11T15:12:36.000Z,5.41
2023-01-11T15:17:35.000Z,5.62
2023-01-11T15:22:44.000Z,5.33
2023-01-11T15:27:38.000Z,5.76
2023-01-11T15:32:36.000Z,6.03
2023-01-11T15:37:38.000Z,6.63
2023-01-11T15:42:34.000Z,6.75
2023-01-11T15:47:35.000Z,6.4
2023-01-11T15:52:34.000Z,6.53
2023-01-11T15:57:35.000Z,6.57
2023-01-11T16:02:34.000Z,6.85
2023-01-11T16:07:35.000Z,6.83
2023-01-11T16:12:34.000Z,6.52
2023-01-11T16:17:34.000Z,6.53
2023-01-11T16:22:35.000Z,6.65
2023-01-11T16:27:34.000Z,6.65
2023-01-11T16:32:35.000Z,6.64
2023-01-11T16:37:35.000Z,6.51
2023-01-11T16:42:34.000Z,6.61
2023-01-11T16:47:35.000Z,6.63
2023-01-11T16:52:34.000Z,6.31
2023-01-11T16:57:35.000Z,6.1
2023-01-11T17:02:35.000Z,5.81
2023-01-11T17:07:34.000Z,5.77
2023-01-11T17:12:34.000Z,5.75
2023-01-11T17:17:35.000Z,6.05
2023-01-11T17:22:35.000Z,6.05
2023-01-11T17:27:34.000Z,6.47
2023-01-11T17:32:35.000Z,6.03
2023-01-11T17:37:35.000Z,5.93
2023-01-11T17:42:35.000Z,5.93
2023-01-11T17:47:35.000Z,6.12
2023-01-11T17:52:34.000Z,6.46
2023-01-11T17:57:35.000Z,6.59
2023-01-11T18:02:34.000Z,6.85
2023-01-11T18:07:35.000Z,6.39
2023-01-11T18:17:35.000Z,6.55
2023-01-11T18:22:34.000Z,6.09
2023-01-11T18:27:35.000Z,6.03
2023-01-11T18:32:35.000Z,6.12
2023-01-11T18:37:34.000Z,6.14
2023-01-11T18:42:35.000Z,6.4
2023-01-11T18:47:35.000Z,6.06
2023-01-11T18:52:35.000Z,6.05
2023-01-11T18:57:35.000Z,5.85
2023-01-11T19:02:34.000Z,5.95
2023-01-11T19:07:35.000Z,6.53
2023-01-11T19:12:35.000Z,6.4
2023-01-11T19:17:35.000Z,6.4
2023-01-11T19:22:37.000Z,5.85
2023-01-11T19:27:35.000Z,5.31
2023-01-11T19:32:35.000Z,5.25
2023-01-11T19:37:34.000Z,4.77
2023-01-11T19:42:35.000Z,5.24
2023-01-11T19:47:35.000Z,4.94
2023-01-11T19:52:34.000Z,4.8
2023-01-11T19:57:35.000Z,4.63
2023-01-11T20:02:35.000Z,4.87
2023-01-11T20:07:35.000Z,5
2023-01-11T20:12:34.000Z,5.92
2023-01-11T20:17:35.000Z,5.53
2023-01-11T20:22:34.000Z,5.22
2023-01-11T20:27:35.000Z,5.22
2023-01-11T20:32:51.000Z,5.37
2023-01-11T20:37:34.000Z,5.47
2023-01-11T20:42:34.000Z,5.75
2023-01-11T20:47:34.000Z,5.78
2023-01-11T20:52:35.000Z,6.48
2023-01-11T20:57:35.000Z,6.24
2023-01-11T21:02:35.000Z,6.68
2023-01-11T21:07:35.000Z,6.23
2023-01-11T21:12:34.000Z,5.93
2023-01-11T21:17:35.000Z,5.53
2023-01-11T21:22:35.000Z,5.89
2023-01-11T21:27:35.000Z,5.69
2023-01-11T21:32:35.000Z,5.95
2023-01-11T21:37:34.000Z,5.19
2023-01-11T21:42:35.000Z,5.19
2023-01-11T21:47:34.000Z,5.77
2023-01-11T21:52:35.000Z,5.2
2023-01-11T21:57:34.000Z,5.38
2023-01-11T22:02:35.000Z,5.11
2023-01-11T22:07:35.000Z,4.94
2023-01-11T22:12:35.000Z,5.06
2023-01-11T22:17:34.000Z,4.95
2023-01-11T22:22:34.000Z,4.95
2023-01-11T22:27:34.000Z,4.72
2023-01-11T22:32:35.000Z,4.81
2023-01-11T22:37:34.000Z,4.92
2023-01-11T22:42:35.000Z,5.1
2023-01-11T22:47:34.000Z,4.31
2023-01-11T22:52:35.000Z,4.83
2023-01-11T22:57:34.000Z,4.83
2023-01-11T23:02:35.000Z,5
2023-01-11T23:17:35.000Z,4.21
2023-01-11T23:22:34.000Z,4.73
2023-01-11T23:27:34.000Z,4.59
2023-01-11T23:32:35.000Z,4.14
2023-01-11T23:37:35.000Z,4.35
2023-01-11T23:42:34.000Z,4.31
2023-01-11T23:52:35.000Z,4.93
2023-01-11T23:57:35.000Z,4.57
